createdAt,value
2023-11-04T00:00:27.882Z,7.66
2023-11-04T00:01:28.878Z,7.67
2023-11-04T00:02:29.808Z,7.67
2023-11-04T00:03:31.567Z,7.71
2023-11-04T00:04:31.679Z,7.71
2023-11-04T00:05:34.008Z,7.71
2023-11-04T00:06:33.398Z,7.71
2023-11-04T00:07:34.427Z,7.72
2023-11-04T00:08:34.370Z,7.69
2023-11-04T00:09:45.981Z,7.71
2023-11-04T00:10:37.465Z,7.71
2023-11-04T00:11:36.389Z,7.71
2023-11-04T00:12:39.064Z,7.71
2023-11-04T00:13:38.442Z,7.72
2023-11-04T00:14:38.393Z,7.69
2023-11-04T00:15:43.965Z,7.71
2023-11-04T00:16:39.831Z,7.71
2023-11-04T00:17:43.949Z,7.72
2023-11-04T00:18:43.471Z,7.69
2023-11-04T00:19:43.922Z,7.72
2023-11-04T00:20:51.511Z,7.71
2023-11-04T00:21:45.223Z,7.67
2023-11-04T00:22:45.198Z,7.66
2023-11-04T00:23:46.895Z,7.63
2023-11-04T00:24:47.467Z,7.60
2023-11-04T00:25:47.930Z,7.60
2023-11-04T00:26:47.938Z,7.59
2023-11-04T00:27:50.414Z,7.58
2023-11-04T00:28:50.675Z,7.58
2023-11-04T00:29:50.605Z,7.56
2023-11-04T00:30:51.317Z,7.58
2023-11-04T00:31:53.973Z,7.56
2023-11-04T00:32:52.941Z,7.56
2023-11-04T00:33:53.397Z,7.53
2023-11-04T00:34:54.324Z,7.55
2023-11-04T00:35:55.238Z,7.53
2023-11-04T00:36:56.215Z,7.53
2023-11-04T00:37:58.944Z,7.53
2023-11-04T00:38:57.826Z,7.52
2023-11-04T00:39:58.770Z,7.52
2023-11-04T00:41:00.917Z,7.50
2023-11-04T00:42:01.929Z,7.50
2023-11-04T00:43:01.392Z,7.50
2023-11-04T00:44:01.809Z,7.52
2023-11-04T00:45:04.471Z,7.49
2023-11-04T00:46:10.390Z,7.45
2023-11-04T00:47:05.928Z,7.44
2023-11-04T00:48:04.885Z,7.42
2023-11-04T00:49:05.879Z,7.42
2023-11-04T00:50:15.012Z,7.42
2023-11-04T00:51:09.946Z,7.40
2023-11-04T00:52:12.419Z,7.38
2023-11-04T00:53:10.424Z,7.40
2023-11-04T00:54:09.918Z,7.37
2023-11-04T00:55:10.774Z,7.38
2023-11-04T00:56:11.422Z,7.38
2023-11-04T00:57:11.376Z,7.37
2023-11-04T00:58:12.278Z,7.35
2023-11-04T00:59:13.200Z,7.32
2023-11-04T01:00:14.167Z,7.31
2023-11-04T01:01:15.108Z,7.32
2023-11-04T01:02:16.884Z,7.32
2023-11-04T01:03:16.884Z,7.29
2023-11-04T01:04:18.558Z,7.27
2023-11-04T01:05:20.030Z,7.23
2023-11-04T01:06:21.929Z,7.20
2023-11-04T01:07:20.417Z,7.19
2023-11-04T01:08:20.357Z,7.17
2023-11-04T01:09:22.036Z,7.13
2023-11-04T01:10:22.002Z,7.13
2023-11-04T01:11:25.419Z,7.09
2023-11-04T01:12:23.366Z,7.09
2023-11-04T01:13:28.930Z,7.08
2023-11-04T01:14:26.427Z,7.09
2023-11-04T01:15:25.954Z,7.12
2023-11-04T01:16:26.407Z,7.09
2023-11-04T01:17:29.411Z,7.09
2023-11-04T01:18:27.375Z,7.12
2023-11-04T01:19:28.549Z,7.12
2023-11-04T01:20:30.981Z,7.05
2023-11-04T01:21:34.567Z,7.07
2023-11-04T01:22:32.436Z,7.08
2023-11-04T01:23:32.950Z,7.08
2023-11-04T01:24:31.858Z,7.09
2023-11-04T01:25:34.422Z,7.08
2023-11-04T01:26:34.913Z,7.07
2023-11-04T01:27:35.525Z,7.07
2023-11-04T01:28:35.920Z,7.08
2023-11-04T01:29:35.325Z,7.08
2023-11-04T01:30:37.930Z,7.08
2023-11-04T01:31:36.863Z,7.08
2023-11-04T01:32:42.967Z,7.08
2023-11-04T01:33:39.254Z,7.08
2023-11-04T01:34:41.969Z,7.12
2023-11-04T01:35:40.196Z,7.12
2023-11-04T01:36:40.998Z,7.09
2023-11-04T01:37:41.795Z,7.13
2023-11-04T01:38:42.613Z,7.12
2023-11-04T01:39:46.448Z,7.09
2023-11-04T01:40:45.927Z,7.09
2023-11-04T01:41:45.408Z,7.13
2023-11-04T01:42:45.965Z,7.13
2023-11-04T01:43:48.901Z,7.13
2023-11-04T01:44:47.317Z,7.12
2023-11-04T01:45:52.969Z,7.13
2023-11-04T01:46:48.977Z,7.15
2023-11-04T01:47:50.021Z,7.15
2023-11-04T01:48:50.186Z,7.16
2023-11-04T01:49:51.431Z,7.15
2023-11-04T01:50:52.932Z,7.15
2023-11-04T01:51:51.889Z,7.16
2023-11-04T01:52:52.820Z,7.15
2023-11-04T01:53:55.449Z,7.16
2023-11-04T01:54:56.046Z,7.16
2023-11-04T01:55:55.917Z,7.16
2023-11-04T01:56:56.443Z,7.16
2023-11-04T01:57:56.376Z,7.16
2023-11-04T01:58:57.950Z,7.16
2023-11-04T01:59:59.945Z,7.19
2023-11-04T02:01:00.437Z,7.17
2023-11-04T02:01:59.835Z,7.17
2023-11-04T02:03:01.494Z,7.15
2023-11-04T02:04:03.498Z,7.16
2023-11-04T02:05:09.467Z,7.16
2023-11-04T02:06:05.438Z,7.17
2023-11-04T02:07:06.416Z,7.16
2023-11-04T02:08:06.469Z,7.17
2023-11-04T02:09:05.406Z,7.19
2023-11-04T02:10:06.334Z,7.20
2023-11-04T02:11:07.929Z,7.19
2023-11-04T02:12:10.418Z,7.17
2023-11-04T02:13:09.432Z,7.17
2023-11-04T02:14:09.594Z,7.19
2023-11-04T02:15:11.961Z,7.19
2023-11-04T02:16:11.737Z,7.20
2023-11-04T02:17:11.644Z,7.20
2023-11-04T02:18:14.540Z,7.22
2023-11-04T02:19:15.483Z,7.23
2023-11-04T02:20:14.931Z,7.22
2023-11-04T02:21:15.354Z,7.22
2023-11-04T02:22:16.283Z,7.22
2023-11-04T02:23:24.926Z,7.23
2023-11-04T02:24:20.971Z,7.22
2023-11-04T02:25:18.940Z,7.23
2023-11-04T02:26:19.418Z,7.24
2023-11-04T02:27:21.482Z,7.24
2023-11-04T02:28:22.914Z,7.24
2023-11-04T02:29:21.354Z,7.27
2023-11-04T02:30:23.122Z,7.24
2023-11-04T02:31:23.069Z,7.26
2023-11-04T02:32:24.912Z,7.26
2023-11-04T02:33:26.524Z,7.27
2023-11-04T02:34:27.044Z,7.27
2023-11-04T02:35:26.000Z,7.26
2023-11-04T02:36:27.434Z,7.29
2023-11-04T02:37:28.932Z,7.32
2023-11-04T02:38:27.910Z,7.32
2023-11-04T02:39:29.480Z,7.31
2023-11-04T02:40:31.943Z,7.32
2023-11-04T02:41:31.433Z,7.34
2023-11-04T02:42:30.904Z,7.34
2023-11-04T02:43:31.824Z,7.34
2023-11-04T02:44:33.429Z,7.35
2023-11-04T02:45:34.980Z,7.35
2023-11-04T02:46:38.431Z,7.35
2023-11-04T02:47:45.595Z,7.37
2023-11-04T02:48:36.554Z,7.37
2023-11-04T02:49:36.284Z,7.35
2023-11-04T02:50:38.959Z,7.35
2023-11-04T02:51:39.434Z,7.37
2023-11-04T02:52:38.987Z,7.37
2023-11-04T02:53:40.763Z,7.37
2023-11-04T02:54:47.451Z,7.40
2023-11-04T02:55:43.435Z,7.38
2023-11-04T02:56:44.925Z,7.40
2023-11-04T02:57:43.943Z,7.40
2023-11-04T02:58:44.472Z,7.38
2023-11-04T02:59:44.398Z,7.42
2023-11-04T03:00:46.356Z,7.42
2023-11-04T03:01:47.950Z,7.42
2023-11-04T03:02:46.922Z,7.41
2023-11-04T03:03:48.509Z,7.42
2023-11-04T03:04:53.493Z,7.44
2023-11-04T03:05:51.951Z,7.45
2023-11-04T03:06:49.924Z,7.45
2023-11-04T03:07:50.861Z,7.45
2023-11-04T03:08:54.432Z,7.47
2023-11-04T03:09:53.968Z,7.49
2023-11-04T03:10:53.440Z,7.49
2023-11-04T03:11:54.442Z,7.49
2023-11-04T03:12:56.946Z,7.52
2023-11-04T03:13:54.869Z,7.50
2023-11-04T03:14:55.727Z,7.52
2023-11-04T03:15:57.965Z,7.52
2023-11-04T03:16:59.969Z,7.53
2023-11-04T03:18:00.581Z,7.55
2023-11-04T03:18:59.579Z,7.56
2023-11-04T03:20:01.445Z,7.55
2023-11-04T03:21:00.364Z,7.56
2023-11-04T03:22:02.966Z,7.58
2023-11-04T03:23:03.448Z,7.58
2023-11-04T03:24:02.932Z,7.58
2023-11-04T03:25:02.923Z,7.59
2023-11-04T03:26:03.855Z,7.59
2023-11-04T03:27:06.442Z,7.59
2023-11-04T03:28:06.599Z,7.60
2023-11-04T03:29:09.454Z,7.60
2023-11-04T03:30:08.479Z,7.60
2023-11-04T03:31:11.940Z,7.62
2023-11-04T03:32:08.337Z,7.62
2023-11-04T03:33:09.337Z,7.62
2023-11-04T03:34:10.337Z,7.62
2023-11-04T03:35:10.835Z,7.60
2023-11-04T03:36:11.263Z,7.62
2023-11-04T03:37:12.930Z,7.63
2023-11-04T03:38:12.850Z,7.62
2023-11-04T03:39:13.805Z,7.63
2023-11-04T03:40:14.754Z,7.63
2023-11-04T03:41:15.589Z,7.63
2023-11-04T03:42:21.467Z,7.66
2023-11-04T03:43:18.958Z,7.67
2023-11-04T03:44:24.439Z,7.66
2023-11-04T03:45:18.826Z,7.66
2023-11-04T03:46:21.463Z,7.67
2023-11-04T03:47:20.395Z,7.67
2023-11-04T03:48:24.085Z,7.67
2023-11-04T03:49:22.117Z,7.67
2023-11-04T03:50:22.585Z,7.69
2023-11-04T03:51:26.471Z,7.69
2023-11-04T03:52:26.953Z,7.71
2023-11-04T03:53:24.885Z,7.71
2023-11-04T03:54:26.486Z,7.69
2023-11-04T03:55:27.236Z,7.72
2023-11-04T03:56:27.186Z,7.71
2023-11-04T03:57:28.175Z,7.69
2023-11-04T03:58:33.443Z,7.71
2023-11-04T03:59:33.967Z,7.72
2023-11-04T04:00:29.867Z,7.72
2023-11-04T04:01:30.779Z,7.74
2023-11-04T04:02:32.468Z,7.74
2023-11-04T04:03:33.003Z,7.75
2023-11-04T04:04:35.527Z,7.75
2023-11-04T04:05:33.443Z,7.74
2023-11-04T04:06:35.996Z,7.77
2023-11-04T04:07:45.454Z,7.77
2023-11-04T04:08:36.473Z,7.77
2023-11-04T04:09:37.017Z,7.77
2023-11-04T04:10:52.541Z,7.78
2023-11-04T04:11:39.961Z,7.78
2023-11-04T04:14:52.098Z,7.78
2023-11-04T04:15:32.115Z,7.81
2023-11-04T04:16:31.558Z,7.81
2023-11-04T04:17:39.764Z,7.81
2023-11-04T04:18:30.587Z,7.82
2023-11-04T04:19:33.037Z,7.82
2023-11-04T04:20:31.012Z,7.84
2023-11-04T04:21:32.031Z,7.84
2023-11-04T04:22:32.436Z,7.87
2023-11-04T04:23:33.339Z,7.85
2023-11-04T04:24:35.100Z,7.87
2023-11-04T04:25:35.554Z,7.89
2023-11-04T04:26:35.981Z,7.90
2023-11-04T04:27:37.567Z,7.89
2023-11-04T04:28:37.494Z,7.90
2023-11-04T04:29:38.170Z,7.92
2023-11-04T04:30:41.100Z,7.93
2023-11-04T04:31:39.766Z,7.92
2023-11-04T04:32:40.835Z,7.92
2023-11-04T04:33:46.153Z,7.93
2023-11-04T04:34:42.120Z,7.93
2023-11-04T04:35:44.557Z,7.93
2023-11-04T04:36:43.592Z,7.94
2023-11-04T04:37:45.586Z,7.93
2023-11-04T04:38:47.539Z,7.93
2023-11-04T04:39:45.506Z,7.93
2023-11-04T04:40:46.550Z,7.93
2023-11-04T04:41:46.962Z,7.93
2023-11-04T04:42:50.580Z,7.90
2023-11-04T04:43:49.033Z,7.92
2023-11-04T04:44:49.526Z,7.92
2023-11-04T04:45:52.642Z,7.92
2023-11-04T04:46:50.564Z,7.92
2023-11-04T04:47:51.516Z,7.90
2023-11-04T04:48:52.528Z,7.90
2023-11-04T04:49:52.911Z,7.90
2023-11-04T04:50:54.531Z,7.90
2023-11-04T04:51:56.097Z,7.92
2023-11-04T04:52:59.560Z,7.93
2023-11-04T04:53:55.974Z,7.92
2023-11-04T04:54:57.569Z,7.93
2023-11-04T04:55:57.533Z,7.92
2023-11-04T04:57:00.094Z,7.92
2023-11-04T04:58:00.579Z,7.93
2023-11-04T04:59:03.043Z,7.93
2023-11-04T05:00:00.452Z,7.92
2023-11-04T05:01:01.425Z,7.93
2023-11-04T05:02:04.042Z,7.93
2023-11-04T05:03:03.070Z,7.93
2023-11-04T05:04:03.547Z,7.93
2023-11-04T05:05:05.157Z,7.93
2023-11-04T05:06:05.074Z,7.94
2023-11-04T05:07:06.550Z,7.94
2023-11-04T05:08:07.054Z,7.97
2023-11-04T05:09:07.974Z,7.97
2023-11-04T05:10:10.566Z,7.96
2023-11-04T05:11:09.494Z,7.97
2023-11-04T05:12:12.093Z,7.99
2023-11-04T05:13:15.556Z,8.00
2023-11-04T05:14:11.946Z,8.00
2023-11-04T05:15:12.865Z,7.99
2023-11-04T05:16:13.790Z,7.97
2023-11-04T05:17:15.552Z,7.99
2023-11-04T05:18:15.444Z,7.99
2023-11-04T05:19:16.010Z,7.97
2023-11-04T05:20:16.484Z,7.99
2023-11-04T05:21:18.062Z,7.99
2023-11-04T05:22:19.565Z,8.00
2023-11-04T05:23:18.463Z,8.02
2023-11-04T05:24:19.383Z,8.02
2023-11-04T05:25:21.064Z,8.00
2023-11-04T05:26:21.032Z,8.03
2023-11-04T05:27:23.625Z,8.03
2023-11-04T05:28:22.512Z,8.02
2023-11-04T05:29:23.429Z,8.02
2023-11-04T05:30:23.978Z,8.02
2023-11-04T05:31:25.606Z,8.03
2023-11-04T05:32:25.566Z,8.03
2023-11-04T05:33:27.253Z,8.03
2023-11-04T05:34:27.384Z,8.04
2023-11-04T05:35:33.562Z,8.04
2023-11-04T05:36:29.559Z,8.04
2023-11-04T05:37:30.041Z,8.04
2023-11-04T05:38:31.069Z,8.07
2023-11-04T05:39:31.616Z,8.08
2023-11-04T05:40:31.733Z,8.10
2023-11-04T05:41:32.182Z,8.08
2023-11-04T05:42:33.137Z,8.08
2023-11-04T05:43:34.033Z,8.08
2023-11-04T05:44:34.974Z,8.11
2023-11-04T05:45:35.989Z,8.12
2023-11-04T05:46:36.904Z,8.11
2023-11-04T05:47:37.846Z,8.12
2023-11-04T05:48:38.816Z,8.12
2023-11-04T05:49:39.362Z,8.12
2023-11-04T05:50:41.592Z,8.12
2023-11-04T05:51:41.075Z,8.14
2023-11-04T05:52:46.050Z,8.12
2023-11-04T05:53:42.459Z,8.14
2023-11-04T05:54:43.471Z,8.12
2023-11-04T05:55:45.593Z,8.14
2023-11-04T05:56:44.847Z,8.12
2023-11-04T05:57:45.884Z,8.12
2023-11-04T05:58:49.187Z,8.14
2023-11-04T05:59:50.040Z,8.15
2023-11-04T06:00:50.599Z,8.15
2023-11-04T06:01:48.521Z,8.15
2023-11-04T06:02:50.115Z,8.17
2023-11-04T06:03:51.671Z,8.17
2023-11-04T06:04:50.643Z,8.18
2023-11-04T06:05:51.603Z,8.17
2023-11-04T06:06:53.096Z,8.17
2023-11-04T06:07:55.056Z,8.15
2023-11-04T06:08:54.551Z,8.18
2023-11-04T06:09:54.990Z,8.17
2023-11-04T06:10:55.914Z,8.15
2023-11-04T06:11:58.572Z,8.15
2023-11-04T06:12:57.579Z,8.17
2023-11-04T06:14:00.073Z,8.15
2023-11-04T06:14:58.995Z,8.14
2023-11-04T06:15:59.968Z,8.17
2023-11-04T06:17:03.610Z,8.17
2023-11-04T06:18:02.092Z,8.15
2023-11-04T06:19:02.640Z,8.17
2023-11-04T06:20:03.119Z,8.18
2023-11-04T06:21:04.582Z,8.18
2023-11-04T06:22:05.080Z,8.20
2023-11-04T06:23:12.549Z,8.20
2023-11-04T06:24:07.567Z,8.21
2023-11-04T06:25:09.399Z,8.21
2023-11-04T06:26:08.198Z,8.21
2023-11-04T06:27:09.214Z,8.22
2023-11-04T06:28:11.570Z,8.22
2023-11-04T06:29:10.525Z,8.21
2023-11-04T06:30:14.125Z,8.22
2023-11-04T06:31:15.044Z,8.22
2023-11-04T06:32:12.995Z,8.26
2023-11-04T06:33:14.087Z,8.25
2023-11-04T06:34:14.072Z,8.25
2023-11-04T06:35:16.113Z,8.25
2023-11-04T06:36:18.071Z,8.25
2023-11-04T06:37:17.574Z,8.25
2023-11-04T06:38:16.992Z,8.25
2023-11-04T06:39:20.068Z,8.26
2023-11-04T06:40:20.559Z,8.28
2023-11-04T06:41:18.515Z,8.28
2023-11-04T06:42:19.428Z,8.26
2023-11-04T06:43:20.356Z,8.30
2023-11-04T06:44:21.312Z,8.30
2023-11-04T06:45:22.565Z,8.30
2023-11-04T06:46:22.506Z,8.32
2023-11-04T06:47:23.617Z,8.32
2023-11-04T06:48:24.098Z,8.32
2023-11-04T06:49:27.611Z,8.32
2023-11-04T06:50:26.575Z,8.32
2023-11-04T06:51:26.578Z,8.35
2023-11-04T06:52:27.503Z,8.33
2023-11-04T06:53:30.085Z,8.35
2023-11-04T06:54:29.105Z,8.33
2023-11-04T06:55:31.576Z,8.35
2023-11-04T06:56:30.513Z,8.35
2023-11-04T06:57:32.071Z,8.36
2023-11-04T06:58:34.691Z,8.36
2023-11-04T06:59:32.630Z,8.39
2023-11-04T07:00:33.564Z,8.36
2023-11-04T07:01:34.445Z,8.36
2023-11-04T07:02:35.459Z,8.37
2023-11-04T07:03:36.638Z,8.37
2023-11-04T07:04:39.585Z,8.39
2023-11-04T07:05:38.395Z,8.39
2023-11-04T07:06:39.094Z,8.40
2023-11-04T07:07:40.576Z,8.40
2023-11-04T07:08:42.064Z,8.42
2023-11-04T07:09:45.593Z,8.42
2023-11-04T07:10:43.084Z,8.45
2023-11-04T07:11:44.619Z,8.45
2023-11-04T07:12:53.232Z,8.44
2023-11-04T07:13:46.154Z,8.45
2023-11-04T07:14:44.850Z,8.48
2023-11-04T07:15:45.207Z,8.47
2023-11-04T07:16:47.086Z,8.47
2023-11-04T07:17:46.217Z,8.50
2023-11-04T07:18:47.441Z,8.51
2023-11-04T07:19:48.035Z,8.53
2023-11-04T07:20:50.095Z,8.51
2023-11-04T07:21:48.369Z,8.53
2023-11-04T07:22:50.084Z,8.54
2023-11-04T07:23:50.562Z,8.55
2023-11-04T07:24:55.692Z,8.55
2023-11-04T07:25:56.657Z,8.57
2023-11-04T07:26:53.602Z,8.58
2023-11-04T07:27:55.626Z,8.57
2023-11-04T07:28:53.614Z,8.57
2023-11-04T07:30:01.065Z,8.57
2023-11-04T07:31:05.782Z,8.57
2023-11-04T07:32:00.066Z,8.57
2023-11-04T07:32:57.119Z,8.55
2023-11-04T07:33:59.615Z,8.57
2023-11-04T07:34:57.515Z,8.57
2023-11-04T07:36:02.092Z,8.57
2023-11-04T07:36:59.084Z,8.57
2023-11-04T07:37:59.498Z,8.55
2023-11-04T07:39:00.477Z,8.58
2023-11-04T07:40:01.453Z,8.60
2023-11-04T07:41:02.394Z,8.60
2023-11-04T07:42:03.367Z,8.60
2023-11-04T07:43:04.383Z,8.63
2023-11-04T07:44:05.394Z,8.65
2023-11-04T07:45:07.598Z,8.63
2023-11-04T07:46:07.129Z,8.65
2023-11-04T07:47:07.110Z,8.66
2023-11-04T07:48:08.674Z,8.65
2023-11-04T07:49:08.724Z,8.66
2023-11-04T07:50:14.134Z,8.66
2023-11-04T07:51:10.006Z,8.69
2023-11-04T07:52:10.522Z,8.71
2023-11-04T07:53:15.613Z,8.71
2023-11-04T07:54:14.757Z,8.73
2023-11-04T07:55:13.102Z,8.72
2023-11-04T07:56:13.630Z,8.73
2023-11-04T07:57:13.547Z,8.75
2023-11-04T07:58:14.471Z,8.75
2023-11-04T07:59:16.401Z,8.76
2023-11-04T08:00:16.417Z,8.78
2023-11-04T08:01:20.067Z,8.78
2023-11-04T08:02:17.998Z,8.79
2023-11-04T08:03:19.066Z,8.79
2023-11-04T08:04:19.766Z,8.79
2023-11-04T08:05:20.396Z,8.81
2023-11-04T08:06:22.591Z,8.78
2023-11-04T08:07:21.523Z,8.78
2023-11-04T08:08:22.762Z,8.79
2023-11-04T08:09:24.113Z,8.79
2023-11-04T08:10:24.600Z,8.81
2023-11-04T08:11:25.003Z,8.79
2023-11-04T08:12:26.616Z,8.81
2023-11-04T08:13:26.583Z,8.83
2023-11-04T08:14:28.836Z,8.83
2023-11-04T08:15:28.312Z,8.79
2023-11-04T08:16:29.219Z,8.81
2023-11-04T08:17:30.527Z,8.79
2023-11-04T08:18:31.071Z,8.81
2023-11-04T08:19:34.133Z,8.79
2023-11-04T08:20:35.227Z,8.83
2023-11-04T08:21:36.210Z,8.86
2023-11-04T08:22:37.131Z,8.84
2023-11-04T08:23:35.620Z,8.86
2023-11-04T08:24:35.794Z,8.84
2023-11-04T08:25:36.192Z,8.87
2023-11-04T08:26:37.131Z,8.87
2023-11-04T08:27:39.726Z,8.88
2023-11-04T08:28:40.801Z,8.88
2023-11-04T08:29:40.139Z,8.87
2023-11-04T08:30:41.661Z,8.88
2023-11-04T08:31:42.095Z,8.88
2023-11-04T08:32:41.862Z,8.90
2023-11-04T08:33:42.390Z,8.90
2023-11-04T08:34:42.928Z,8.90
2023-11-04T08:35:45.116Z,8.93
2023-11-04T08:37:08.611Z,8.91
2023-11-04T08:37:45.589Z,8.91
2023-11-04T08:38:46.088Z,8.94
2023-11-04T08:39:57.337Z,8.94
2023-11-04T08:41:02.822Z,8.96
2023-11-04T08:41:50.578Z,8.97
2023-11-04T08:42:48.518Z,8.97
2023-11-04T08:43:52.432Z,9.01
2023-11-04T08:44:52.198Z,9.02
2023-11-04T08:45:53.183Z,9.04
2023-11-04T08:46:52.376Z,9.09
2023-11-04T08:47:52.400Z,9.09
2023-11-04T08:48:53.383Z,9.13
2023-11-04T08:49:53.988Z,9.16
2023-11-04T08:50:54.780Z,9.18
2023-11-04T08:51:55.631Z,9.21
2023-11-04T08:52:56.507Z,9.23
2023-11-04T08:53:57.451Z,9.23
2023-11-04T08:54:59.191Z,9.25
2023-11-04T08:55:59.591Z,9.25
2023-11-04T08:57:00.624Z,9.25
2023-11-04T08:58:01.171Z,9.25
2023-11-04T08:59:01.165Z,9.28
2023-11-04T09:00:03.649Z,9.30
2023-11-04T09:01:03.647Z,9.31
2023-11-04T09:02:04.667Z,9.30
2023-11-04T09:03:04.635Z,9.31
2023-11-04T09:04:14.096Z,9.31
2023-11-04T09:05:10.138Z,9.31
2023-11-04T09:06:07.499Z,9.31
2023-11-04T09:07:08.241Z,9.32
2023-11-04T09:08:09.117Z,9.35
2023-11-04T09:09:12.610Z,9.39
2023-11-04T09:10:10.109Z,9.40
2023-11-04T09:11:13.089Z,9.42
2023-11-04T09:12:12.090Z,9.43
2023-11-04T09:13:12.037Z,9.42
2023-11-04T09:14:12.989Z,9.45
2023-11-04T09:15:13.822Z,9.45
2023-11-04T09:16:16.610Z,9.45
2023-11-04T09:17:16.585Z,9.48
2023-11-04T09:18:19.932Z,9.49
2023-11-04T09:19:18.168Z,9.49
2023-11-04T09:20:17.664Z,9.50
2023-11-04T09:21:18.578Z,9.52
2023-11-04T09:22:19.489Z,9.50
2023-11-04T09:23:23.137Z,9.52
2023-11-04T09:24:22.099Z,9.52
2023-11-04T09:25:20.996Z,9.53
2023-11-04T09:26:21.883Z,9.56
2023-11-04T09:27:24.584Z,9.57
2023-11-04T09:28:26.129Z,9.56
2023-11-04T09:29:26.904Z,9.57
2023-11-04T09:30:24.949Z,9.57
2023-11-04T09:31:27.152Z,9.56
2023-11-04T09:32:31.165Z,9.56
2023-11-04T09:33:27.193Z,9.57
2023-11-04T09:34:28.676Z,9.56
2023-11-04T09:35:31.091Z,9.57
2023-11-04T09:36:30.626Z,9.60
2023-11-04T09:37:29.980Z,9.63
2023-11-04T09:38:31.618Z,9.63
2023-11-04T09:39:31.579Z,9.64
2023-11-04T09:40:33.167Z,9.66
2023-11-04T09:41:37.243Z,9.68
2023-11-04T09:42:34.021Z,9.68
2023-11-04T09:43:35.097Z,9.70
2023-11-04T09:44:35.428Z,9.73
2023-11-04T09:45:39.112Z,9.76
2023-11-04T09:46:38.605Z,9.78
2023-11-04T09:47:42.591Z,9.81
2023-11-04T09:48:40.499Z,9.82
2023-11-04T09:49:41.108Z,9.82
2023-11-04T09:50:40.209Z,9.85
2023-11-04T09:51:42.142Z,9.85
2023-11-04T09:52:42.602Z,9.86
2023-11-04T09:53:43.023Z,9.89
2023-11-04T09:54:43.968Z,9.88
2023-11-04T09:55:45.659Z,9.89
2023-11-04T09:56:46.609Z,9.89
2023-11-04T09:57:51.138Z,9.89
2023-11-04T09:58:47.515Z,9.91
2023-11-04T09:59:49.095Z,9.88
2023-11-04T10:00:49.089Z,9.89
2023-11-04T10:01:50.052Z,9.89
2023-11-04T10:02:51.296Z,9.89
2023-11-04T10:03:51.259Z,9.91
2023-11-04T10:04:51.770Z,9.91
2023-11-04T10:05:53.153Z,9.91
2023-11-04T10:06:53.609Z,9.93
2023-11-04T10:07:56.594Z,9.93
2023-11-04T10:08:55.017Z,9.91
2023-11-04T10:09:56.645Z,9.93
2023-11-04T10:10:56.731Z,9.93
2023-11-04T10:11:59.149Z,9.93
2023-11-04T10:12:58.743Z,9.93
2023-11-04T10:13:58.665Z,9.93
2023-11-04T10:14:59.756Z,9.93
2023-11-04T10:16:01.235Z,9.91
2023-11-04T10:17:01.189Z,9.93
2023-11-04T10:18:02.194Z,9.91
2023-11-04T10:19:02.225Z,9.93
2023-11-04T10:20:04.751Z,9.89
2023-11-04T10:21:04.611Z,9.89
2023-11-04T10:22:04.680Z,9.89
2023-11-04T10:23:06.202Z,9.88
2023-11-04T10:24:05.710Z,9.86
2023-11-04T10:25:06.278Z,9.86
2023-11-04T10:26:07.627Z,9.85
2023-11-04T10:27:07.644Z,9.81
2023-11-04T10:28:11.209Z,9.79
2023-11-04T10:29:12.160Z,9.79
2023-11-04T10:30:10.459Z,9.78
2023-11-04T10:31:12.218Z,9.78
2023-11-04T10:32:11.796Z,9.78
2023-11-04T10:33:12.309Z,9.76
2023-11-04T10:34:13.491Z,9.78
2023-11-04T10:35:13.958Z,9.79
2023-11-04T10:36:14.930Z,9.81
2023-11-04T10:37:16.663Z,9.79
2023-11-04T10:38:16.671Z,9.81
2023-11-04T10:39:17.596Z,9.81
2023-11-04T10:40:17.844Z,9.81
2023-11-04T10:41:19.709Z,9.82
2023-11-04T10:42:20.638Z,9.82
2023-11-04T10:43:21.109Z,9.86
2023-11-04T10:44:21.670Z,9.89
2023-11-04T10:45:21.649Z,9.94
2023-11-04T10:46:22.598Z,9.97
2023-11-04T10:47:24.669Z,10.01
2023-11-04T10:48:24.066Z,10.07
2023-11-04T10:49:25.810Z,10.09
2023-11-04T10:50:25.831Z,10.15
2023-11-04T10:51:26.846Z,10.19
2023-11-04T10:52:27.783Z,10.28
2023-11-04T10:53:28.711Z,10.26
2023-11-04T10:54:29.689Z,10.25
2023-11-04T10:55:31.162Z,10.24
2023-11-04T10:56:31.146Z,10.24
2023-11-04T10:57:32.248Z,10.25
2023-11-04T10:58:32.211Z,10.24
2023-11-04T10:59:33.142Z,10.24
2023-11-04T11:00:34.131Z,10.22
2023-11-04T11:01:35.182Z,10.24
2023-11-04T11:02:35.646Z,10.26
2023-11-04T11:03:37.158Z,10.25
2023-11-04T11:04:37.120Z,10.28
2023-11-04T11:05:38.096Z,10.25
2023-11-04T11:06:39.071Z,10.26
2023-11-04T11:07:39.943Z,10.26
2023-11-04T11:08:41.637Z,10.24
2023-11-04T11:09:41.644Z,10.25
2023-11-04T11:10:42.624Z,10.26
2023-11-04T11:11:43.116Z,10.26
2023-11-04T11:12:43.609Z,10.30
2023-11-04T11:13:44.526Z,10.30
2023-11-04T11:14:46.118Z,10.32
2023-11-04T11:15:47.494Z,10.33
2023-11-04T11:16:47.410Z,10.34
2023-11-04T11:17:48.411Z,10.36
2023-11-04T11:18:49.767Z,10.36
2023-11-04T11:19:49.754Z,10.34
2023-11-04T11:20:52.245Z,10.34
2023-11-04T11:21:51.680Z,10.36
2023-11-04T11:22:52.694Z,10.37
2023-11-04T11:23:54.638Z,10.39
2023-11-04T11:24:53.789Z,10.40
2023-11-04T11:25:54.274Z,10.40
2023-11-04T11:26:54.733Z,10.42
2023-11-04T11:27:56.681Z,10.44
2023-11-04T11:28:57.133Z,10.43
2023-11-04T11:29:57.112Z,10.46
2023-11-04T11:30:58.186Z,10.47
2023-11-04T11:31:58.636Z,10.51
2023-11-04T11:32:59.645Z,10.51
2023-11-04T11:34:00.243Z,10.51
2023-11-04T11:35:00.753Z,10.62
2023-11-04T11:36:01.215Z,10.77
2023-11-04T11:37:02.203Z,10.86
2023-11-04T11:38:03.132Z,10.94
2023-11-04T11:39:05.284Z,10.94
2023-11-04T11:40:16.025Z,10.95
2023-11-04T11:41:05.448Z,10.95
2023-11-04T11:42:06.372Z,10.95
2023-11-04T11:43:08.238Z,10.94
2023-11-04T11:44:08.309Z,10.92
2023-11-04T11:45:09.001Z,10.89
2023-11-04T11:46:10.072Z,10.91
2023-11-04T11:47:11.250Z,10.92
2023-11-04T11:48:11.496Z,10.92
2023-11-04T11:49:12.428Z,10.95
2023-11-04T11:50:13.445Z,10.96
2023-11-04T11:51:14.149Z,10.95
2023-11-04T11:52:15.688Z,10.91
2023-11-04T11:53:15.611Z,10.92
2023-11-04T11:54:17.124Z,10.91
2023-11-04T11:55:17.651Z,10.89
2023-11-04T11:56:18.074Z,10.89
2023-11-04T11:57:19.064Z,10.88
2023-11-04T11:58:20.002Z,10.89
2023-11-04T11:59:20.942Z,10.89
2023-11-04T12:00:21.912Z,10.92
2023-11-04T12:01:22.899Z,10.92
2023-11-04T12:02:24.661Z,10.94
2023-11-04T12:03:25.236Z,10.95
2023-11-04T12:04:25.294Z,11.01
2023-11-04T12:05:25.721Z,11.17
2023-11-04T12:06:26.679Z,11.29
2023-11-04T12:07:27.666Z,11.38
2023-11-04T12:08:28.604Z,11.44
2023-11-04T12:09:29.537Z,11.44
2023-11-04T12:10:30.470Z,11.46
2023-11-04T12:11:31.526Z,11.43
2023-11-04T12:12:31.977Z,11.39
2023-11-04T12:13:32.908Z,11.35
2023-11-04T12:14:33.832Z,11.34
2023-11-04T12:15:34.828Z,11.32
2023-11-04T12:16:35.325Z,11.29
2023-11-04T12:17:36.301Z,11.31
2023-11-04T12:18:37.269Z,11.29
2023-11-04T12:19:40.183Z,11.28
2023-11-04T12:20:39.007Z,11.27
2023-11-04T12:21:39.475Z,11.27
2023-11-04T12:22:41.159Z,11.28
2023-11-04T12:23:41.108Z,11.31
2023-11-04T12:24:43.724Z,11.35
2023-11-04T12:25:42.678Z,11.36
2023-11-04T12:26:44.665Z,11.41
2023-11-04T12:27:44.181Z,11.43
2023-11-04T12:28:44.122Z,11.46
2023-11-04T12:29:45.427Z,11.46
2023-11-04T12:30:45.952Z,11.47
2023-11-04T12:31:46.944Z,11.49
2023-11-04T12:32:48.236Z,11.50
2023-11-04T12:33:48.338Z,11.53
2023-11-04T12:34:48.947Z,11.56
2023-11-04T12:35:55.174Z,11.57
2023-11-04T12:36:51.272Z,11.56
2023-11-04T12:37:50.697Z,11.53
2023-11-04T12:38:51.693Z,11.49
2023-11-04T12:39:52.576Z,11.50
2023-11-04T12:40:54.357Z,11.49
2023-11-04T12:41:53.972Z,11.46
2023-11-04T12:42:54.785Z,11.43
2023-11-04T12:43:55.422Z,11.36
2023-11-04T12:44:57.163Z,11.34
2023-11-04T12:45:57.678Z,11.32
2023-11-04T12:46:57.596Z,11.32
2023-11-04T12:47:58.651Z,11.29
2023-11-04T12:48:59.411Z,11.27
2023-11-04T12:49:59.949Z,11.25
2023-11-04T12:51:01.653Z,11.20
2023-11-04T12:52:01.625Z,11.16
2023-11-04T12:53:02.763Z,11.16
2023-11-04T12:54:04.665Z,11.11
2023-11-04T12:55:04.729Z,11.10
2023-11-04T12:56:05.660Z,11.09
2023-11-04T12:57:05.600Z,11.03
2023-11-04T12:58:06.669Z,11.01
2023-11-04T12:59:07.145Z,10.98
2023-11-04T13:00:08.077Z,10.96
2023-11-04T13:01:09.766Z,10.94
2023-11-04T13:02:10.676Z,10.91
2023-11-04T13:03:10.668Z,10.88
2023-11-04T13:04:11.684Z,10.88
2023-11-04T13:05:12.504Z,10.88
2023-11-04T13:06:13.671Z,10.86
2023-11-04T13:07:13.682Z,10.86
2023-11-04T13:08:14.460Z,10.86
2023-11-04T13:09:14.859Z,10.84
2023-11-04T13:10:15.918Z,10.84
2023-11-04T13:11:16.365Z,10.81
2023-11-04T13:12:17.454Z,10.83
2023-11-04T13:13:18.770Z,10.84
2023-11-04T13:14:19.693Z,10.83
2023-11-04T13:15:19.691Z,10.83
2023-11-04T13:16:20.252Z,10.81
2023-11-04T13:17:20.726Z,10.78
2023-11-04T13:18:21.225Z,10.76
2023-11-04T13:19:22.203Z,10.74
2023-11-04T13:20:22.684Z,10.71
2023-11-04T13:21:23.697Z,10.70
2023-11-04T13:22:24.238Z,10.68
2023-11-04T13:23:25.155Z,10.70
2023-11-04T13:24:25.582Z,10.66
2023-11-04T13:25:27.232Z,10.65